createdAt,value
2022-10-22T00:00:27.657Z,87.000000
2022-10-22T00:05:21.738Z,86.875000
2022-10-22T00:10:27.614Z,86.000000
2022-10-22T00:15:28.054Z,86.000000
2022-10-22T00:20:19.163Z,86.000000
2022-10-22T00:25:22.309Z,86.000000
2022-10-22T00:30:27.577Z,86.000000
2022-10-22T00:35:28.510Z,86.000000
2022-10-22T00:40:19.499Z,86.000000
2022-10-22T00:45:22.926Z,86.000000
2022-10-22T00:50:27.503Z,86.000000
2022-10-22T00:55:28.954Z,86.000000
2022-10-22T01:00:20.037Z,86.000000
2022-10-22T01:05:23.118Z,86.000000
2022-10-22T01:10:27.560Z,85.600000
2022-10-22T01:15:29.366Z,85.000000
2022-10-22T01:20:20.750Z,85.000000
2022-10-22T01:25:23.840Z,84.181818
2022-10-22T01:30:27.556Z,84.333333
2022-10-22T01:35:30.271Z,85.000000
2022-10-22T01:40:21.177Z,85.090909
2022-10-22T01:45:24.274Z,84.416667
2022-10-22T01:50:27.378Z,83.500000
2022-10-22T01:55:30.615Z,83.000000
2022-10-22T02:00:21.503Z,83.000000
2022-10-22T02:05:24.652Z,83.000000
2022-10-22T02:10:28.047Z,83.000000
2022-10-22T02:15:18.821Z,83.571429
2022-10-22T02:20:22.352Z,84.000000
2022-10-22T02:25:28.090Z,84.416667
2022-10-22T02:30:28.579Z,85.000000
2022-10-22T02:35:19.634Z,85.000000
2022-10-22T02:40:22.914Z,85.272727
2022-10-22T02:45:28.445Z,86.000000
2022-10-22T02:50:29.026Z,86.000000
2022-10-22T02:55:19.996Z,86.000000
2022-10-22T03:00:23.252Z,86.000000
2022-10-22T03:05:28.554Z,86.000000
2022-10-22T03:10:29.455Z,86.000000
2022-10-22T03:15:20.537Z,86.000000
2022-10-22T03:20:24.070Z,86.000000
2022-10-22T03:25:28.457Z,86.000000
2022-10-22T03:30:30.391Z,85.000000
2022-10-22T03:35:21.271Z,85.181818
2022-10-22T03:40:24.533Z,86.000000
2022-10-22T03:45:29.380Z,86.000000
2022-10-22T03:50:30.737Z,85.909091
2022-10-22T03:55:21.737Z,85.000000
2022-10-22T04:00:24.889Z,84.250000
2022-10-22T04:05:28.918Z,84.000000
2022-10-22T04:10:19.067Z,84.000000
2022-10-22T04:15:22.719Z,83.600000
2022-10-22T04:20:25.873Z,84.000000
2022-10-22T04:25:41.127Z,83.583333
2022-10-22T04:30:19.899Z,83.000000
2022-10-22T04:35:23.098Z,83.000000
2022-10-22T04:40:26.214Z,83.000000
2022-10-22T04:45:41.462Z,82.090909
2022-10-22T04:50:20.349Z,81.400000
2022-10-22T04:55:23.472Z,80.250000
2022-10-22T05:00:29.356Z,80.000000
2022-10-22T05:05:29.755Z,79.750000
2022-10-22T05:10:20.815Z,78.888889
2022-10-22T05:15:23.972Z,78.000000
2022-10-22T05:20:27.420Z,77.363636
2022-10-22T05:25:30.536Z,74.400000
2022-10-22T05:30:21.574Z,71.583333
2022-10-22T05:35:24.688Z,68.545455
2022-10-22T05:40:31.037Z,67.363636
2022-10-22T05:45:18.774Z,67.555556
2022-10-22T05:50:22.311Z,66.250000
2022-10-22T05:55:25.156Z,67.222222
2022-10-22T06:00:29.507Z,66.500000
2022-10-22T06:05:19.286Z,66.000000
2022-10-22T06:10:22.328Z,67.888889
2022-10-22T06:15:25.550Z,68.666667
2022-10-22T06:20:28.738Z,69.750000
2022-10-22T06:25:19.805Z,71.666667
2022-10-22T06:30:22.848Z,70.333333
2022-10-22T06:35:26.064Z,69.100000
2022-10-22T06:40:29.286Z,67.000000
2022-10-22T06:45:20.649Z,66.500000
2022-10-22T06:50:23.674Z,67.700000
2022-10-22T06:55:29.350Z,66.833333
2022-10-22T07:00:29.521Z,68.363636
2022-10-22T07:05:20.537Z,68.400000
2022-10-22T07:10:26.033Z,67.500000
2022-10-22T07:15:29.342Z,67.000000
2022-10-22T07:20:30.060Z,67.090909
2022-10-22T07:25:21.057Z,67.833333
2022-10-22T07:30:24.248Z,67.444444
2022-10-22T07:35:27.408Z,68.000000
2022-10-22T07:40:30.436Z,68.545455
2022-10-22T07:45:21.910Z,69.200000
2022-10-22T07:50:24.568Z,69.500000
2022-10-22T07:55:29.347Z,70.000000
2022-10-22T08:00:30.983Z,69.111111
2022-10-22T08:05:21.926Z,69.916667
2022-10-22T08:10:25.081Z,67.833333
2022-10-22T08:15:29.289Z,67.333333
2022-10-22T08:20:19.497Z,65.833333
2022-10-22T08:25:22.572Z,66.300000
2022-10-22T08:30:25.700Z,65.000000
2022-10-22T08:35:29.394Z,66.090909
2022-10-22T08:40:19.880Z,66.000000
2022-10-22T08:45:23.169Z,63.600000
2022-10-22T08:50:26.121Z,63.400000
2022-10-22T08:55:32.685Z,64.750000
2022-10-22T09:00:21.324Z,64.900000
2022-10-22T09:05:23.345Z,65.090909
2022-10-22T09:10:26.553Z,64.818182
2022-10-22T09:15:29.691Z,64.636364
2022-10-22T09:20:21.149Z,65.000000
2022-10-22T09:25:24.212Z,64.272727
2022-10-22T09:30:27.337Z,65.200000
2022-10-22T09:35:30.570Z,64.888889
2022-10-22T09:40:21.469Z,63.272727
2022-10-22T09:45:24.698Z,64.500000
2022-10-22T09:50:29.713Z,65.818182
2022-10-22T09:55:31.079Z,67.600000
2022-10-22T10:00:21.957Z,68.000000
2022-10-22T10:05:25.016Z,71.083333
2022-10-22T10:10:29.505Z,71.571429
2022-10-22T10:15:19.988Z,71.200000
2022-10-22T10:20:22.854Z,71.625000
2022-10-22T10:25:25.893Z,70.153846
2022-10-22T10:30:29.383Z,72.818182
2022-10-22T10:35:20.063Z,71.200000
2022-10-22T10:40:23.240Z,71.428571
2022-10-22T10:45:29.325Z,72.400000
2022-10-22T10:50:29.799Z,72.555556
2022-10-22T10:55:20.492Z,72.818182
2022-10-22T11:00:23.598Z,73.181818
2022-10-22T11:05:29.412Z,73.909091
2022-10-22T11:10:30.118Z,74.000000
2022-10-22T11:15:20.809Z,73.818182
2022-10-22T11:20:24.228Z,73.363636
2022-10-22T11:25:29.341Z,72.750000
2022-10-22T11:30:31.129Z,72.000000
2022-10-22T11:35:25.715Z,72.900000
2022-10-22T11:40:24.533Z,73.454545
2022-10-22T11:45:29.309Z,72.500000
2022-10-22T11:50:30.881Z,72.666667
2022-10-22T11:55:22.259Z,72.181818
2022-10-22T12:00:25.053Z,71.500000
2022-10-22T12:05:29.403Z,73.000000
2022-10-22T12:10:19.058Z,73.181818
2022-10-22T12:15:22.254Z,72.111111
2022-10-22T12:20:25.561Z,72.000000
2022-10-22T12:25:35.504Z,72.000000
2022-10-22T12:30:19.668Z,72.909091
2022-10-22T12:35:22.735Z,71.600000
2022-10-22T12:40:25.830Z,71.272727
2022-10-22T12:45:29.315Z,70.916667
2022-10-22T12:50:20.015Z,70.750000
2022-10-22T12:55:23.588Z,71.500000
2022-10-22T13:00:26.415Z,71.700000
2022-10-22T13:05:41.562Z,72.181818
2022-10-22T13:10:20.408Z,72.200000
2022-10-22T13:15:23.496Z,73.454545
2022-10-22T13:20:29.301Z,73.545455
2022-10-22T13:25:30.258Z,73.000000
2022-10-22T13:30:21.193Z,74.000000
2022-10-22T13:35:24.386Z,74.454545
2022-10-22T13:40:30.274Z,74.545455
2022-10-22T13:45:30.843Z,74.222222
2022-10-22T13:50:21.638Z,75.000000
2022-10-22T13:55:25.183Z,75.750000
2022-10-22T14:00:29.787Z,75.400000
2022-10-22T14:05:19.126Z,76.200000
2022-10-22T14:10:21.979Z,77.000000
2022-10-22T14:15:25.182Z,77.666667
2022-10-22T14:20:29.814Z,78.000000
2022-10-22T14:25:19.657Z,79.000000
2022-10-22T14:30:22.849Z,79.000000
2022-10-22T14:35:25.941Z,79.000000
2022-10-22T14:40:29.783Z,79.083333
2022-10-22T14:45:20.113Z,79.000000
2022-10-22T14:50:23.219Z,79.833333
2022-10-22T14:55:26.243Z,79.818182
2022-10-22T15:00:29.825Z,79.333333
2022-10-22T15:05:20.421Z,81.818182
2022-10-22T15:10:24.693Z,81.300000
2022-10-22T15:15:31.551Z,81.000000
2022-10-22T15:20:30.219Z,82.000000
2022-10-22T15:25:21.346Z,82.000000
2022-10-22T15:30:24.425Z,82.583333
2022-10-22T15:35:29.836Z,82.777778
2022-10-22T15:40:30.541Z,83.000000
2022-10-22T15:45:21.641Z,82.909091
2022-10-22T15:50:24.711Z,83.888889
2022-10-22T15:55:30.234Z,83.818182
2022-10-22T16:00:20.161Z,83.100000
2022-10-22T16:05:21.981Z,83.454545
2022-10-22T16:10:25.200Z,83.909091
2022-10-22T16:15:29.779Z,84.000000
2022-10-22T16:20:19.740Z,85.000000
2022-10-22T16:25:22.893Z,84.666667
2022-10-22T16:30:26.045Z,84.444444
2022-10-22T16:35:29.773Z,84.916667
2022-10-22T16:40:22.810Z,85.333333
2022-10-22T16:45:23.329Z,84.250000
2022-10-22T16:50:26.368Z,84.100000
2022-10-22T16:55:30.322Z,85.307692
2022-10-22T17:00:20.548Z,85.333333
2022-10-22T17:05:23.768Z,85.583333
2022-10-22T17:10:26.872Z,85.000000
2022-10-22T17:15:30.721Z,85.100000
2022-10-22T17:20:21.319Z,86.000000
2022-10-22T17:25:24.333Z,86.000000
2022-10-22T17:30:29.919Z,86.900000
2022-10-22T17:35:30.657Z,87.000000
2022-10-22T17:40:21.894Z,87.000000
2022-10-22T17:45:24.836Z,87.000000
2022-10-22T17:50:29.866Z,87.250000
2022-10-22T17:55:18.989Z,88.000000
2022-10-22T18:00:22.535Z,89.000000
2022-10-22T18:05:25.125Z,89.000000
2022-10-22T18:10:29.831Z,89.000000
2022-10-22T18:15:19.322Z,89.000000
2022-10-22T18:20:22.832Z,89.000000
2022-10-22T18:25:25.984Z,89.000000
2022-10-22T18:30:29.880Z,89.545455
2022-10-22T18:35:20.041Z,90.000000
2022-10-22T18:40:23.269Z,90.125000
2022-10-22T18:45:26.304Z,91.000000
2022-10-22T18:50:29.960Z,91.000000
2022-10-22T18:55:20.518Z,91.000000
2022-10-22T19:00:24.008Z,91.000000
2022-10-22T19:05:26.754Z,91.000000
2022-10-22T19:10:29.953Z,91.000000
2022-10-22T19:15:20.925Z,91.000000
2022-10-22T19:20:24.326Z,90.500000
2022-10-22T19:25:27.464Z,90.000000
2022-10-22T19:30:30.687Z,90.000000
2022-10-22T19:35:21.569Z,89.200000
2022-10-22T19:40:24.672Z,89.000000
2022-10-22T19:45:27.900Z,89.000000
2022-10-22T19:50:19.040Z,89.000000
2022-10-22T19:55:22.044Z,89.000000
2022-10-22T20:00:25.560Z,89.000000
2022-10-22T20:05:29.790Z,89.000000
2022-10-22T20:10:19.380Z,88.100000
2022-10-22T20:15:22.368Z,88.000000
2022-10-22T20:20:26.731Z,88.900000
2022-10-22T20:25:29.882Z,88.545455
2022-10-22T20:30:20.172Z,88.000000
2022-10-22T20:35:23.252Z,88.000000
2022-10-22T20:40:26.316Z,88.000000
2022-10-22T20:45:29.877Z,87.444444
2022-10-22T20:50:20.533Z,86.272727
2022-10-22T20:55:24.142Z,84.700000
2022-10-22T21:00:26.765Z,84.000000
2022-10-22T21:05:29.983Z,83.500000
2022-10-22T21:10:21.103Z,82.400000
2022-10-22T21:15:24.152Z,82.000000
2022-10-22T21:20:29.852Z,81.090909
2022-10-22T21:25:30.637Z,81.000000
2022-10-22T21:30:21.704Z,80.333333
2022-10-22T21:35:26.007Z,80.636364
2022-10-22T21:40:30.292Z,81.000000
2022-10-22T21:45:22.337Z,80.142857
2022-10-22T21:50:22.094Z,80.750000
2022-10-22T21:55:25.095Z,79.400000
2022-10-22T22:00:30.626Z,78.222222
2022-10-22T22:05:19.253Z,78.600000
2022-10-22T22:10:22.459Z,79.000000
2022-10-22T22:15:25.640Z,79.545455
2022-10-22T22:20:30.204Z,80.000000
2022-10-22T22:25:19.877Z,80.000000
2022-10-22T22:30:22.962Z,80.000000
2022-10-22T22:35:26.094Z,79.545455
2022-10-22T22:40:33.729Z,79.000000
2022-10-22T22:45:20.208Z,79.000000
2022-10-22T22:50:23.444Z,79.000000
2022-10-22T22:55:26.530Z,80.000000
2022-10-22T23:00:30.716Z,80.272727
2022-10-22T23:05:20.649Z,81.000000
2022-10-22T23:10:23.911Z,80.833333
2022-10-22T23:15:26.851Z,79.750000
2022-10-22T23:20:30.771Z,77.333333
2022-10-22T23:25:21.404Z,74.200000
2022-10-22T23:30:24.474Z,70.090909
2022-10-22T23:35:19.241Z,68.181818
2022-10-22T23:40:19.205Z,68.000000
2022-10-22T23:45:22.008Z,68.000000
2022-10-22T23:50:19.122Z,68.000000
2022-10-22T23:55:19.148Z,67.833333
